Time;durP1;ratioP1;P1;durP2;ratioP2;P2;SDS_P1;SDS_P2;PMS_P1;PMS_P2;Temp;Humidity;BMP_temperature;BMP_pressure;BME280_temperature;BME280_humidity;BME280_pressure;Samples;Min_cycle;Max_cycle;Signal;HPM_P1;HPM_P2
2021/07/25 00:02:25;;;;;;;15.73;13.80;;;23.10;97.70;;;;;;5112306;28;20423;-86
2021/07/25 00:04:50;;;;;;;15.52;12.90;;;23.00;97.80;;;;;;5111199;28;20379;-88
2021/07/25 00:07:16;;;;;;;14.70;13.20;;;22.90;97.70;;;;;;5110721;28;20925;-90
2021/07/25 00:09:41;;;;;;;15.85;13.05;;;22.90;98.00;;;;;;5110637;28;20403;-90
2021/07/25 00:12:07;;;;;;;14.53;13.13;;;22.90;97.70;;;;;;5109369;28;20466;-87
2021/07/25 00:14:33;;;;;;;16.27;12.95;;;22.90;97.80;;;;;;5111144;28;20407;-86
2021/07/25 00:16:59;;;;;;;15.50;13.77;;;22.80;97.90;;;;;;5111109;28;20394;-87
2021/07/25 00:19:25;;;;;;;15.02;13.35;;;22.80;97.90;;;;;;5110253;28;20378;-87
2021/07/25 00:21:50;;;;;;;15.32;13.75;;;22.80;98.00;;;;;;5110124;28;20383;-88
2021/07/25 00:24:22;;;;;;;15.00;13.50;;;22.70;98.00;;;;;;5111619;28;20907;-87
2021/07/25 00:26:49;;;;;;;14.93;13.07;;;22.80;97.90;;;;;;5108370;28;20386;-86
2021/07/25 00:29:16;;;;;;;14.95;13.38;;;22.70;98.00;;;;;;5111876;28;20442;-85
2021/07/25 00:31:42;;;;;;;14.80;13.30;;;22.70;97.90;;;;;;5110795;28;20366;-89
2021/07/25 00:34:09;;;;;;;16.20;13.70;;;22.70;98.00;;;;;;5110285;28;20382;-87
2021/07/25 00:36:34;;;;;;;15.07;13.52;;;22.60;98.20;;;;;;5109616;28;20379;-88
2021/07/25 00:39:00;;;;;;;16.90;13.15;;;22.60;98.00;;;;;;5109746;28;20471;-87
2021/07/25 00:41:26;;;;;;;16.03;13.70;;;22.60;98.40;;;;;;5111865;28;20371;-85
2021/07/25 00:43:54;;;;;;;18.10;13.70;;;22.50;98.50;;;;;;5109899;28;20382;-85
2021/07/25 00:46:20;;;;;;;15.60;13.75;;;22.50;98.70;;;;;;5109865;28;20884;-85
2021/07/25 00:48:46;;;;;;;15.63;13.90;;;22.40;98.90;;;;;;5109419;28;20385;-85
2021/07/25 00:51:13;;;;;;;15.55;13.85;;;22.30;99.50;;;;;;5110364;28;20397;-87
2021/07/25 00:53:41;;;;;;;16.80;13.35;;;22.20;99.30;;;;;;5110787;28;20416;-85
2021/07/25 00:56:08;;;;;;;17.50;14.02;;;22.20;99.20;;;;;;5110784;28;20375;-85
2021/07/25 00:58:38;;;;;;;15.48;13.43;;;22.00;99.80;;;;;;5111649;28;20894;-86
2021/07/25 01:01:04;;;;;;;14.75;13.20;;;22.00;99.90;;;;;;5110047;28;20386;-86
2021/07/25 01:03:44;;;;;;;15.25;13.65;;;22.00;99.90;;;;;;5110077;28;20471;-88
2021/07/25 01:06:44;;;;;;;14.70;13.18;;;21.90;99.90;;;;;;5110243;28;20370;-87
2021/07/25 01:09:17;;;;;;;15.43;13.88;;;21.70;99.90;;;;;;5109716;28;20481;-87
2021/07/25 01:11:52;;;;;;;15.85;13.80;;;21.50;99.90;;;;;;5111979;28;20370;-88
2021/07/25 01:14:28;;;;;;;16.08;14.40;;;21.40;99.90;;;;;;5110474;28;20405;-86
2021/07/25 01:17:23;;;;;;;18.15;13.95;;;21.30;99.90;;;;;;5110736;28;20375;-88
2021/07/25 01:19:49;;;;;;;15.50;13.55;;;21.20;99.90;;;;;;5109823;28;20406;-85
2021/07/25 01:22:16;;;;;;;16.23;14.27;;;21.20;99.90;;;;;;5111131;28;20419;-88
2021/07/25 01:24:42;;;;;;;17.33;15.52;;;21.20;99.90;;;;;;5111157;28;20900;-88
2021/07/25 01:27:10;;;;;;;16.23;13.90;;;21.10;99.90;;;;;;5109749;28;20378;-85
2021/07/25 01:29:40;;;;;;;18.83;14.70;;;21.00;99.90;;;;;;5109325;28;20425;-85
2021/07/25 01:32:06;;;;;;;16.33;14.07;;;20.90;99.90;;;;;;5111324;28;20382;-85
2021/07/25 01:34:34;;;;;;;19.55;15.00;;;20.80;99.90;;;;;;5113247;28;20366;-86
2021/07/25 01:37:01;;;;;;;16.58;14.77;;;20.80;99.90;;;;;;5114075;28;20386;-85
2021/07/25 01:39:29;;;;;;;16.20;14.57;;;20.70;99.90;;;;;;5113982;28;20420;-86
2021/07/25 01:41:55;;;;;;;17.70;14.85;;;20.60;99.90;;;;;;5114332;28;20375;-86
2021/07/25 01:44:21;;;;;;;16.77;14.77;;;20.60;99.90;;;;;;5113359;28;20379;-85
2021/07/25 01:46:46;;;;;;;17.45;14.70;;;20.60;99.90;;;;;;5113893;28;20414;-85
2021/07/25 01:49:12;;;;;;;17.63;15.17;;;20.50;99.90;;;;;;5113556;28;20752;-90
2021/07/25 01:51:37;;;;;;;16.70;15.00;;;20.50;99.90;;;;;;5113168;28;20410;-85
2021/07/25 01:54:03;;;;;;;15.80;14.13;;;20.50;99.90;;;;;;5113679;28;20438;-88
2021/07/25 01:56:29;;;;;;;17.60;15.20;;;20.50;99.90;;;;;;5113759;28;20366;-85
2021/07/25 01:58:56;;;;;;;17.45;15.68;;;20.50;99.90;;;;;;5114856;28;20461;-84
2021/07/25 02:01:22;;;;;;;18.00;15.07;;;20.40;99.90;;;;;;5113594;28;20432;-86
2021/07/25 02:03:48;;;;;;;16.75;14.98;;;20.40;99.90;;;;;;5112931;28;20462;-85
2021/07/25 02:06:14;;;;;;;17.17;15.37;;;20.40;99.90;;;;;;5112976;28;20462;-87
2021/07/25 02:08:39;;;;;;;16.67;14.82;;;20.30;99.90;;;;;;5113133;28;20374;-86
2021/07/25 02:11:08;;;;;;;16.70;14.90;;;20.30;99.90;;;;;;5112879;28;20383;-85
2021/07/25 02:13:34;;;;;;;15.77;14.18;;;20.20;99.90;;;;;;5112870;28;20459;-85
2021/07/25 02:16:00;;;;;;;17.13;15.38;;;20.20;99.90;;;;;;5113865;28;20907;-86
2021/07/25 02:18:25;;;;;;;17.20;15.37;;;20.20;99.90;;;;;;5112543;28;20458;-86
2021/07/25 02:20:51;;;;;;;16.98;15.10;;;20.00;99.90;;;;;;5112481;28;20421;-84
2021/07/25 02:23:17;;;;;;;17.97;15.87;;;20.00;99.90;;;;;;5112473;28;20880;-86
2021/07/25 02:25:43;;;;;;;27.80;16.55;;;20.00;99.90;;;;;;5112832;28;20379;-87
2021/07/25 02:28:09;;;;;;;17.33;15.52;;;20.00;99.90;;;;;;5114270;28;20371;-86
2021/07/25 02:30:35;;;;;;;19.42;16.55;;;19.90;99.90;;;;;;5112936;28;20398;-89
2021/07/25 02:33:01;;;;;;;17.42;15.38;;;19.90;99.90;;;;;;5112877;28;20375;-85
2021/07/25 02:35:27;;;;;;;16.52;14.88;;;19.90;99.90;;;;;;5113756;28;20390;-86
2021/07/25 02:37:53;;;;;;;17.57;15.77;;;19.90;99.90;;;;;;5112951;28;20382;-88
2021/07/25 02:40:18;;;;;;;18.60;15.77;;;19.90;99.90;;;;;;5112865;28;20495;-85
2021/07/25 02:42:44;;;;;;;17.38;15.68;;;19.90;99.90;;;;;;5111767;28;20379;-86
2021/07/25 02:45:10;;;;;;;17.37;15.37;;;19.90;99.90;;;;;;5113064;28;20428;-87
2021/07/25 02:47:36;;;;;;;17.33;15.63;;;19.90;99.90;;;;;;5112385;28;20454;-87
2021/07/25 02:50:02;;;;;;;17.85;16.05;;;19.80;99.90;;;;;;5111892;28;20425;-86
2021/07/25 02:52:27;;;;;;;17.63;15.73;;;19.80;99.90;;;;;;5112166;28;20371;-85
2021/07/25 02:54:53;;;;;;;17.17;15.43;;;19.80;99.90;;;;;;5111824;28;20375;-85
2021/07/25 02:57:18;;;;;;;18.97;15.83;;;19.80;99.90;;;;;;5111697;28;20379;-86
2021/07/25 02:59:44;;;;;;;18.35;16.13;;;19.70;99.90;;;;;;5111785;28;20413;-86
2021/07/25 03:02:10;;;;;;;18.30;16.45;;;19.60;99.90;;;;;;5111718;28;20733;-86
2021/07/25 03:04:36;;;;;;;19.43;16.63;;;19.50;99.90;;;;;;5113193;28;20367;-86
2021/07/25 03:07:02;;;;;;;17.60;15.65;;;19.40;99.90;;;;;;5112013;28;20454;-86
2021/07/25 03:09:28;;;;;;;17.80;15.98;;;19.30;99.90;;;;;;5111786;28;20395;-87
2021/07/25 03:11:53;;;;;;;19.03;16.57;;;19.20;99.90;;;;;;5111525;28;20725;-86
2021/07/25 03:14:19;;;;;;;18.45;16.63;;;19.20;99.90;;;;;;5111599;28;20435;-86
2021/07/25 03:16:46;;;;;;;18.63;16.73;;;19.20;99.90;;;;;;5111526;28;20423;-87
2021/07/25 03:19:11;;;;;;;17.73;15.93;;;19.20;99.90;;;;;;5111507;28;20374;-87
2021/07/25 03:21:37;;;;;;;20.37;16.73;;;19.20;99.90;;;;;;5111467;28;20378;-86
2021/07/25 03:24:03;;;;;;;18.73;16.93;;;19.10;99.90;;;;;;5111850;28;20400;-87
2021/07/25 03:26:29;;;;;;;21.70;17.08;;;19.10;99.90;;;;;;5111691;28;20367;-86
2021/07/25 03:28:55;;;;;;;20.50;16.70;;;19.10;99.90;;;;;;5112991;28;21238;-86
2021/07/25 03:31:20;;;;;;;18.30;16.47;;;19.10;99.90;;;;;;5111439;28;20375;-87
2021/07/25 03:33:46;;;;;;;20.42;17.15;;;19.20;99.90;;;;;;5111572;28;20866;-86
2021/07/25 03:36:11;;;;;;;19.27;16.53;;;19.20;99.90;;;;;;5112008;28;20374;-87
2021/07/25 03:38:37;;;;;;;19.38;16.38;;;19.20;99.90;;;;;;5111855;28;20453;-87
2021/07/25 03:41:03;;;;;;;18.57;16.63;;;19.20;99.90;;;;;;5111866;28;20383;-88
2021/07/25 03:43:30;;;;;;;18.63;16.75;;;19.30;99.90;;;;;;5116322;28;20374;-86
2021/07/25 03:45:57;;;;;;;18.38;16.42;;;19.40;99.90;;;;;;5117186;28;20903;-88
2021/07/25 03:48:23;;;;;;;18.42;16.45;;;19.50;99.90;;;;;;5118040;28;20395;-85
2021/07/25 03:50:49;;;;;;;19.33;17.00;;;19.60;99.90;;;;;;5117696;28;20405;-89
2021/07/25 03:53:14;;;;;;;19.07;16.77;;;19.60;99.90;;;;;;5115549;28;20761;-88
2021/07/25 03:55:44;;;;;;;19.98;17.15;;;19.70;99.90;;;;;;5111318;28;20390;-87
2021/07/25 03:58:09;;;;;;;19.55;16.98;;;19.80;99.90;;;;;;5111693;28;20860;-85
2021/07/25 04:00:35;;;;;;;19.53;16.57;;;19.80;99.90;;;;;;5112664;28;20493;-86
2021/07/25 04:03:00;;;;;;;21.05;16.63;;;19.80;99.90;;;;;;5111359;28;20370;-87
2021/07/25 04:05:26;;;;;;;18.07;15.77;;;19.90;99.90;;;;;;5111893;28;20422;-88
2021/07/25 04:07:52;;;;;;;18.47;16.47;;;19.90;99.90;;;;;;5111429;28;20378;-86
2021/07/25 04:10:17;;;;;;;19.50;16.65;;;19.80;99.90;;;;;;5111638;28;21012;-86
2021/07/25 04:12:43;;;;;;;17.45;15.70;;;19.80;99.90;;;;;;5111132;28;20406;-87
2021/07/25 04:15:09;;;;;;;18.20;16.30;;;19.80;99.90;;;;;;5110924;28;20900;-88
2021/07/25 04:17:35;;;;;;;19.05;16.48;;;19.80;99.90;;;;;;5111147;28;20536;-86
2021/07/25 04:20:05;;;;;;;19.77;16.17;;;19.80;99.90;;;;;;5111849;27;20462;-87
2021/07/25 04:22:37;;;;;;;18.13;16.10;;;19.90;99.90;;;;;;5112376;28;20370;-86
2021/07/25 04:25:05;;;;;;;17.35;15.50;;;19.90;99.90;;;;;;5110493;28;20440;-85
2021/07/25 04:27:31;;;;;;;18.15;16.23;;;20.00;99.90;;;;;;5110592;28;20367;-85
2021/07/25 04:29:57;;;;;;;17.77;15.18;;;20.10;99.90;;;;;;5110876;28;20397;-87
2021/07/25 04:32:26;;;;;;;18.43;15.80;;;20.30;99.90;;;;;;5111168;28;20379;-89
2021/07/25 04:34:52;;;;;;;18.33;16.42;;;20.40;99.90;;;;;;5111489;28;20442;-84
2021/07/25 04:37:27;;;;;;;17.83;15.82;;;20.50;99.90;;;;;;5110473;28;20401;-87
2021/07/25 04:39:53;;;;;;;17.90;16.05;;;20.50;99.90;;;;;;5110775;28;20846;-86
2021/07/25 04:42:23;;;;;;;18.15;16.23;;;20.60;99.90;;;;;;5110440;28;20428;-86
2021/07/25 04:44:54;;;;;;;19.63;15.90;;;20.70;99.90;;;;;;5110362;28;20428;-86
2021/07/25 04:47:23;;;;;;;17.30;15.30;;;20.70;99.90;;;;;;5111359;28;20402;-88
2021/07/25 04:50:04;;;;;;;19.23;15.95;;;20.90;99.90;;;;;;5109966;28;20402;-85
2021/07/25 04:52:38;;;;;;;20.48;17.05;;;20.90;99.90;;;;;;5110079;28;20864;-87
2021/07/25 04:55:07;;;;;;;21.02;16.13;;;21.00;99.90;;;;;;5111418;28;20419;-86
2021/07/25 04:57:41;;;;;;;18.92;16.40;;;21.00;99.90;;;;;;5109809;28;20387;-85
2021/07/25 05:00:09;;;;;;;18.57;16.23;;;21.10;99.90;;;;;;5110179;28;20414;-86
2021/07/25 05:02:37;;;;;;;19.58;16.08;;;21.10;99.90;;;;;;5109757;28;20371;-85
2021/07/25 05:05:03;;;;;;;17.77;15.93;;;21.20;99.90;;;;;;5109584;28;20390;-87
2021/07/25 05:07:40;;;;;;;18.77;15.80;;;21.30;99.90;;;;;;5109364;28;20371;-86
2021/07/25 05:10:08;;;;;;;18.27;15.55;;;21.40;99.90;;;;;;5109472;28;20410;-85
2021/07/25 05:12:44;;;;;;;17.45;15.55;;;21.60;99.90;;;;;;5109765;28;20386;-86
2021/07/25 05:15:15;;;;;;;20.17;15.23;;;21.80;99.90;;;;;;5110847;28;20450;-87
2021/07/25 05:17:56;;;;;;;16.53;14.80;;;22.00;99.90;;;;;;5111267;28;20374;-86
2021/07/25 05:20:33;;;;;;;16.63;14.82;;;22.40;99.90;;;;;;5109517;28;20375;-86
2021/07/25 05:23:11;;;;;;;16.95;15.23;;;22.80;99.90;;;;;;5109934;28;20382;-86
2021/07/25 05:25:46;;;;;;;17.97;15.00;;;23.20;99.90;;;;;;5110020;28;20458;-86
2021/07/25 05:28:12;;;;;;;17.02;14.60;;;23.40;99.90;;;;;;5110814;28;20379;-86
2021/07/25 05:30:40;;;;;;;17.67;15.02;;;23.60;99.90;;;;;;5109766;28;20891;-86
2021/07/25 05:33:07;;;;;;;18.70;15.23;;;23.70;99.90;;;;;;5109615;28;20429;-87
2021/07/25 05:35:33;;;;;;;17.17;15.30;;;23.70;99.90;;;;;;5110086;28;20821;-86
2021/07/25 05:37:59;;;;;;;18.73;15.32;;;23.60;99.90;;;;;;5109531;28;20378;-85
2021/07/25 05:40:25;;;;;;;17.75;15.25;;;23.50;99.90;;;;;;5111089;28;20412;-87
2021/07/25 05:42:50;;;;;;;19.23;15.27;;;23.50;99.90;;;;;;5109279;28;20493;-87
2021/07/25 05:45:16;;;;;;;17.83;15.20;;;23.60;99.90;;;;;;5110615;28;20378;-87
2021/07/25 05:47:41;;;;;;;18.90;15.15;;;23.60;99.90;;;;;;5109560;28;20386;-88
2021/07/25 05:50:08;;;;;;;16.73;14.93;;;23.70;99.90;;;;;;5110530;28;20405;-87
2021/07/25 05:52:52;;;;;;;37.43;15.93;;;23.90;99.90;;;;;;5110203;28;20385;-86
2021/07/25 05:55:19;;;;;;;20.90;15.52;;;24.00;99.90;;;;;;5109022;28;20741;-86
2021/07/25 05:57:45;;;;;;;18.85;15.27;;;23.90;99.90;;;;;;5109886;28;20399;-85
2021/07/25 06:00:11;;;;;;;25.00;15.35;;;23.90;99.90;;;;;;5109395;28;20423;-86
2021/07/25 06:02:59;;;;;;;19.63;15.00;;;23.80;99.90;;;;;;5109823;28;20371;-86
2021/07/25 06:05:27;;;;;;;18.65;14.73;;;23.90;99.90;;;;;;5109902;28;20377;-86
2021/07/25 06:07:53;;;;;;;16.80;15.05;;;23.90;99.90;;;;;;5110038;28;20454;-84
2021/07/25 06:10:23;;;;;;;16.53;14.57;;;24.00;99.90;;;;;;5111225;28;20834;-87
2021/07/25 06:12:51;;;;;;;17.58;14.63;;;24.20;99.90;;;;;;5109821;28;20382;-88
2021/07/25 06:15:17;;;;;;;17.35;14.25;;;24.40;99.90;;;;;;5109780;28;20383;-85
2021/07/25 06:17:43;;;;;;;17.38;14.65;;;24.60;99.90;;;;;;5109547;28;20406;-85
2021/07/25 06:20:10;;;;;;;23.90;14.70;;;25.00;99.90;;;;;;5113562;28;20379;-86
2021/07/25 06:22:43;;;;;;;17.77;14.60;;;25.40;99.90;;;;;;5113509;28;20367;-89
2021/07/25 06:25:09;;;;;;;18.20;13.90;;;25.60;99.90;;;;;;5113837;28;20462;-87
2021/07/25 06:27:35;;;;;;;16.38;14.25;;;25.70;99.90;;;;;;5113355;28;20385;-88
2021/07/25 06:30:01;;;;;;;19.15;14.43;;;25.80;99.90;;;;;;5113472;28;20403;-90
2021/07/25 06:32:26;;;;;;;72.50;17.85;;;25.60;99.90;;;;;;5113251;28;20382;-86
2021/07/25 06:34:52;;;;;;;19.63;14.43;;;25.50;99.90;;;;;;5113464;28;20880;-86
2021/07/25 06:37:17;;;;;;;16.23;14.27;;;25.30;99.90;;;;;;5115019;28;20382;-89
2021/07/25 06:39:43;;;;;;;18.30;14.57;;;25.00;99.90;;;;;;5113550;28;20371;-87
2021/07/25 06:42:08;;;;;;;16.48;14.40;;;25.00;99.90;;;;;;5112316;28;20852;-86
2021/07/25 06:44:34;;;;;;;17.23;14.13;;;25.00;99.90;;;;;;5114486;28;20462;-86
2021/07/25 06:47:03;;;;;;;15.70;14.07;;;24.90;99.90;;;;;;5113249;28;20893;-89
2021/07/25 06:49:29;;;;;;;19.27;14.48;;;24.90;99.90;;;;;;5114255;28;20447;-87
2021/07/25 06:51:54;;;;;;;32.88;15.85;;;24.90;99.90;;;;;;5112505;28;20383;-88
2021/07/25 06:54:20;;;;;;;15.07;13.57;;;25.10;99.90;;;;;;5112809;28;20388;-87
2021/07/25 06:56:45;;;;;;;15.53;13.83;;;25.10;99.90;;;;;;5113394;28;20371;-85
2021/07/25 06:59:11;;;;;;;19.13;13.40;;;25.40;99.90;;;;;;5112496;28;20469;-90
2021/07/25 07:01:37;;;;;;;17.83;13.48;;;26.10;99.90;;;;;;5113847;28;20373;-87
2021/07/25 07:04:02;;;;;;;17.10;13.73;;;26.90;99.90;;;;;;5112917;28;20749;-88
2021/07/25 07:06:28;;;;;;;16.80;13.37;;;27.60;99.90;;;;;;5112948;28;20432;-85
2021/07/25 07:08:53;;;;;;;33.50;14.27;;;28.00;98.90;;;;;;5114605;28;20871;-88
2021/07/25 07:11:26;;;;;;;19.33;13.80;;;28.10;99.40;;;;;;5112857;28;20383;-83
2021/07/25 07:13:53;;;;;;;16.05;13.60;;;28.00;98.60;;;;;;5114218;28;20868;-86
2021/07/25 07:16:18;;;;;;;15.90;13.60;;;28.00;98.20;;;;;;5112984;28;20386;-83
2021/07/25 07:18:44;;;;;;;18.50;13.30;;;28.10;98.50;;;;;;5112022;28;20386;-85
2021/07/25 07:21:09;;;;;;;46.90;15.47;;;28.00;98.30;;;;;;5112475;28;20462;-84
2021/07/25 07:23:35;;;;;;;15.50;13.52;;;27.80;97.70;;;;;;5112562;28;20375;-86
2021/07/25 07:26:01;;;;;;;17.27;13.70;;;27.50;98.50;;;;;;5112862;28;20403;-88
2021/07/25 07:28:26;;;;;;;16.63;13.17;;;27.40;98.70;;;;;;5111497;28;20490;-90
2021/07/25 07:30:52;;;;;;;21.23;13.35;;;27.40;98.80;;;;;;5112056;28;20395;-86
2021/07/25 07:33:19;;;;;;;15.25;13.70;;;27.50;99.00;;;;;;5112020;28;20387;-85
2021/07/25 07:35:45;;;;;;;16.00;13.85;;;27.70;98.60;;;;;;5111800;28;20386;-88
2021/07/25 07:38:13;;;;;;;32.85;15.32;;;27.80;98.00;;;;;;5111865;28;20377;-88
2021/07/25 07:40:41;;;;;;;20.05;13.68;;;27.80;97.60;;;;;;5113702;28;20363;-88
2021/07/25 07:43:08;;;;;;;24.95;14.75;;;27.70;98.60;;;;;;5112490;28;20383;-89
2021/07/25 07:45:35;;;;;;;20.65;13.73;;;27.80;97.40;;;;;;5112473;28;20411;-88
2021/07/25 07:48:01;;;;;;;22.63;13.88;;;27.90;97.40;;;;;;5113630;28;20379;-89
2021/07/25 07:50:27;;;;;;;14.85;13.05;;;28.10;97.90;;;;;;5111942;28;20409;-89
2021/07/25 07:52:54;;;;;;;15.07;13.47;;;28.20;96.60;;;;;;5111542;28;20378;-88
2021/07/25 07:55:19;;;;;;;13.77;12.37;;;28.30;97.10;;;;;;5112593;28;20718;-86
2021/07/25 07:57:45;;;;;;;14.48;12.98;;;28.30;97.10;;;;;;5111757;28;20374;-87
2021/07/25 08:00:12;;;;;;;14.63;13.13;;;28.50;97.30;;;;;;5112720;28;20503;-87
2021/07/25 08:02:39;;;;;;;18.48;13.35;;;28.70;96.60;;;;;;5110511;28;20393;-90
2021/07/25 08:05:07;;;;;;;14.73;12.77;;;29.00;96.40;;;;;;5112391;28;20368;-91
2021/07/25 08:07:33;;;;;;;33.92;15.15;;;28.90;95.60;;;;;;5110221;28;20466;-90
2021/07/25 08:10:00;;;;;;;15.20;12.93;;;29.10;96.20;;;;;;5109448;27;20399;-89
2021/07/25 08:12:34;;;;;;;16.05;12.95;;;29.20;94.50;;;;;;5109117;28;20374;-87
2021/07/25 08:15:01;;;;;;;14.70;12.75;;;29.20;94.50;;;;;;5111503;28;20944;-84
2021/07/25 08:17:27;;;;;;;18.30;13.43;;;29.10;95.10;;;;;;5110677;27;20377;-85
2021/07/25 08:19:52;;;;;;;15.35;12.77;;;29.10;95.80;;;;;;5110313;28;20389;-85
2021/07/25 08:22:18;;;;;;;18.10;13.02;;;29.20;94.60;;;;;;5110132;28;20395;-82
2021/07/25 08:24:44;;;;;;;14.27;12.83;;;29.20;95.30;;;;;;5110327;28;20378;-89
2021/07/25 08:27:10;;;;;;;15.10;13.50;;;29.30;94.90;;;;;;5110932;28;20386;-88
2021/07/25 08:29:37;;;;;;;14.60;13.10;;;29.30;95.00;;;;;;5109942;28;20495;-87
2021/07/25 08:32:04;;;;;;;14.30;12.80;;;29.50;94.30;;;;;;5111438;28;20366;-87
2021/07/25 08:34:30;;;;;;;14.80;13.30;;;29.70;94.70;;;;;;5110734;28;20375;-86
2021/07/25 08:36:55;;;;;;;22.80;12.85;;;29.90;94.50;;;;;;5110195;28;20377;-88
2021/07/25 08:39:21;;;;;;;26.77;13.43;;;30.00;95.50;;;;;;5111315;27;20880;-87
2021/07/25 08:42:09;;;;;;;18.73;12.47;;;30.20;95.00;;;;;;5108420;28;20391;-86
2021/07/25 08:44:40;;;;;;;16.17;13.20;;;30.20;93.30;;;;;;5108421;27;20391;-85
2021/07/25 08:47:29;;;;;;;15.30;12.52;;;29.80;92.90;;;;;;5114319;27;20857;-87
2021/07/25 08:50:01;;;;;;;14.90;12.73;;;29.30;93.60;;;;;;5101747;27;20455;-86
2021/07/25 08:52:29;;;;;;;16.33;13.45;;;29.30;94.10;;;;;;5107287;28;20452;-86
2021/07/25 08:54:56;;;;;;;14.23;12.13;;;29.20;94.10;;;;;;5112349;27;20926;-89
2021/07/25 08:57:26;;;;;;;14.13;11.93;;;29.40;93.20;;;;;;5110360;28;20374;-86
2021/07/25 08:59:54;;;;;;;15.20;11.98;;;29.70;94.00;;;;;;5111523;28;20389;-90
2021/07/25 09:02:23;;;;;;;15.68;12.43;;;29.90;93.60;;;;;;5109035;28;20954;-87
2021/07/25 09:04:50;;;;;;;13.45;12.15;;;30.30;92.30;;;;;;5110169;28;20366;-87
2021/07/25 09:07:18;;;;;;;14.18;12.38;;;30.30;91.20;;;;;;5110914;28;20392;-87
2021/07/25 09:09:47;;;;;;;15.98;12.55;;;30.30;92.20;;;;;;5109928;28;20477;-86
2021/07/25 09:12:15;;;;;;;14.52;12.52;;;30.40;92.80;;;;;;5109909;28;20392;-85
2021/07/25 09:14:45;;;;;;;15.77;13.18;;;30.60;93.40;;;;;;5109231;28;20371;-90
2021/07/25 09:17:11;;;;;;;19.40;12.93;;;30.80;92.70;;;;;;5108994;28;20401;-87
2021/07/25 09:20:11;;;;;;;16.55;12.85;;;30.90;92.30;;;;;;5109637;28;20375;-89
2021/07/25 09:22:52;;;;;;;16.52;13.15;;;31.00;92.00;;;;;;5107624;28;20391;-89
2021/07/25 09:25:21;;;;;;;14.57;12.87;;;30.80;92.10;;;;;;5107558;28;20459;-87
2021/07/25 09:27:56;;;;;;;15.18;13.23;;;30.70;92.40;;;;;;5105878;28;20382;-87
2021/07/25 09:30:23;;;;;;;17.05;12.90;;;30.60;92.60;;;;;;5110426;28;20489;-89
2021/07/25 09:32:50;;;;;;;42.00;14.38;;;30.70;92.20;;;;;;5107896;28;20472;-87
2021/07/25 09:35:40;;;;;;;21.70;14.25;;;30.50;92.30;;;;;;5109177;28;20781;-87
2021/07/25 09:38:06;;;;;;;15.02;12.35;;;30.40;92.20;;;;;;5116851;28;20390;-86
2021/07/25 09:40:34;;;;;;;16.23;12.40;;;30.50;91.90;;;;;;5118338;28;20864;-87
2021/07/25 09:43:11;;;;;;;14.43;12.30;;;30.40;92.30;;;;;;5115921;28;20377;-85
2021/07/25 09:45:58;;;;;;;14.77;11.85;;;30.60;91.80;;;;;;5116227;28;20400;-87
2021/07/25 09:48:25;;;;;;;14.75;12.50;;;30.90;92.10;;;;;;5110928;28;20421;-90
2021/07/25 09:50:52;;;;;;;16.25;11.73;;;31.40;92.60;;;;;;5110321;28;20463;-86
2021/07/25 09:53:18;;;;;;;15.95;12.70;;;31.60;91.30;;;;;;5115413;27;20369;-88
2021/07/25 09:55:45;;;;;;;14.30;12.88;;;31.70;90.10;;;;;;5114262;28;20409;-91
2021/07/25 09:58:11;;;;;;;18.30;12.98;;;31.70;91.20;;;;;;5113116;28;20374;-87
2021/07/25 10:00:44;;;;;;;19.42;12.57;;;31.70;90.60;;;;;;5113927;28;20394;-87
2021/07/25 10:03:22;;;;;;;28.05;13.25;;;31.60;91.20;;;;;;5111050;28;20457;-85
2021/07/25 10:05:48;;;;;;;14.93;11.93;;;31.70;91.50;;;;;;5110527;28;20378;-88
2021/07/25 10:08:16;;;;;;;19.50;12.70;;;31.70;91.60;;;;;;5113876;28;20381;-89
2021/07/25 10:10:45;;;;;;;13.88;12.45;;;31.70;91.40;;;;;;5113796;28;20857;-85
2021/07/25 10:13:16;;;;;;;13.80;12.25;;;31.60;90.20;;;;;;5111374;28;20877;-87
2021/07/25 10:15:46;;;;;;;14.25;12.30;;;31.40;90.80;;;;;;5113037;28;20463;-88
2021/07/25 10:18:13;;;;;;;14.13;12.32;;;31.40;91.30;;;;;;5110761;28;20449;-87
2021/07/25 10:20:44;;;;;;;16.40;13.30;;;31.40;91.00;;;;;;5113020;28;20429;-87
2021/07/25 10:23:12;;;;;;;15.48;12.73;;;31.20;91.40;;;;;;5109380;28;20387;-86
2021/07/25 10:25:39;;;;;;;15.80;12.27;;;31.30;93.00;;;;;;5114563;28;20371;-89
2021/07/25 10:28:06;;;;;;;15.80;12.43;;;31.50;92.20;;;;;;5111918;28;20401;-87
2021/07/25 10:30:33;;;;;;;30.95;14.05;;;31.80;92.30;;;;;;5107248;28;20489;-87
2021/07/25 10:33:00;;;;;;;15.68;13.38;;;32.10;91.40;;;;;;5110384;28;20397;-86
2021/07/25 10:35:28;;;;;;;18.95;13.05;;;32.30;91.50;;;;;;5109120;28;20740;-86
2021/07/25 10:37:55;;;;;;;144.55;24.95;;;32.10;90.60;;;;;;5108654;28;20371;-90
2021/07/25 10:40:24;;;;;;;25.52;13.25;;;32.20;91.90;;;;;;5110090;28;20399;-88
2021/07/25 10:42:51;;;;;;;15.43;13.10;;;32.20;90.80;;;;;;5111675;28;20410;-86
2021/07/25 10:45:17;;;;;;;14.35;12.35;;;32.10;90.30;;;;;;5109524;28;20864;-89
2021/07/25 10:47:44;;;;;;;13.82;12.57;;;32.00;91.00;;;;;;5110189;28;20443;-85
2021/07/25 10:50:17;;;;;;;17.02;13.70;;;31.90;91.80;;;;;;5108835;28;20927;-85
2021/07/25 10:52:55;;;;;;;18.75;13.95;;;31.70;91.50;;;;;;5109846;28;20382;-92
2021/07/25 10:55:39;;;;;;;17.42;13.05;;;31.80;90.50;;;;;;5108976;28;20398;-89
2021/07/25 10:58:11;;;;;;;14.93;13.15;;;31.70;90.70;;;;;;5109490;28;20473;-91
2021/07/25 11:00:52;;;;;;;40.67;15.03;;;31.50;90.40;;;;;;5105919;28;20395;-88
2021/07/25 11:03:26;;;;;;;14.87;12.90;;;31.40;91.20;;;;;;5109166;28;20453;-88
2021/07/25 11:06:01;;;;;;;15.30;12.95;;;31.50;90.90;;;;;;5106517;28;20375;-86
2021/07/25 11:08:32;;;;;;;14.93;12.80;;;31.60;90.60;;;;;;5110974;28;20376;-88
2021/07/25 11:11:00;;;;;;;14.52;12.80;;;31.30;90.80;;;;;;5111781;28;20406;-87
2021/07/25 11:13:40;;;;;;;14.38;12.88;;;31.50;91.30;;;;;;5109801;28;20443;-86
2021/07/25 11:16:29;;;;;;;14.23;12.73;;;31.60;91.70;;;;;;5108387;28;20370;-87
2021/07/25 11:19:00;;;;;;;15.07;13.38;;;31.80;91.50;;;;;;5100310;28;20461;-90
2021/07/25 11:21:41;;;;;;;14.52;13.00;;;31.90;91.90;;;;;;5107622;28;20504;-90
2021/07/25 11:24:28;;;;;;;14.88;12.98;;;31.90;90.90;;;;;;5109314;28;20429;-90
2021/07/25 11:27:03;;;;;;;22.33;13.15;;;31.80;92.10;;;;;;5098557;28;20395;-86
2021/07/25 11:29:32;;;;;;;14.90;13.00;;;31.90;91.70;;;;;;5109235;28;20463;-88
2021/07/25 11:31:58;;;;;;;14.05;12.57;;;31.80;92.00;;;;;;5110344;28;20390;-88
2021/07/25 11:34:39;;;;;;;68.95;16.95;;;31.70;92.30;;;;;;5109229;28;20395;-89
2021/07/25 11:37:08;;;;;;;17.77;13.38;;;31.70;91.00;;;;;;5109066;28;20408;-88
2021/07/25 11:39:35;;;;;;;14.00;12.52;;;31.90;92.20;;;;;;5111652;28;20805;-86
2021/07/25 11:42:05;;;;;;;16.77;14.00;;;32.00;91.60;;;;;;5107026;28;20428;-87
2021/07/25 11:44:33;;;;;;;16.98;13.45;;;32.00;91.70;;;;;;5109612;28;20436;-87
2021/07/25 11:47:00;;;;;;;21.30;12.98;;;32.00;92.10;;;;;;5109338;28;20375;-87
2021/07/25 11:49:28;;;;;;;18.00;14.13;;;31.90;91.90;;;;;;5111022;28;20485;-88
2021/07/25 11:52:04;;;;;;;20.30;13.30;;;31.80;91.10;;;;;;5112628;28;20402;-88
2021/07/25 11:54:36;;;;;;;14.40;12.90;;;31.70;92.20;;;;;;5110254;28;20379;-86
2021/07/25 11:57:12;;;;;;;18.03;13.57;;;31.80;92.80;;;;;;5111471;27;20455;-86
2021/07/25 11:59:58;;;;;;;16.75;13.60;;;31.70;92.50;;;;;;5111169;28;20884;-84
2021/07/25 12:02:26;;;;;;;16.05;13.40;;;31.30;92.20;;;;;;5107272;28;20426;-88
2021/07/25 12:04:52;;;;;;;30.85;14.75;;;31.00;92.80;;;;;;5111457;28;20382;-86
2021/07/25 12:07:20;;;;;;;17.70;13.40;;;31.00;93.00;;;;;;5110792;28;20391;-85
2021/07/25 12:09:48;;;;;;;16.90;13.50;;;31.00;93.30;;;;;;5109489;28;20402;-90
2021/07/25 12:12:20;;;;;;;16.80;13.55;;;31.10;93.20;;;;;;5111803;28;20381;-86
2021/07/25 12:14:50;;;;;;;19.98;13.63;;;31.20;93.40;;;;;;5111948;28;20374;-88
2021/07/25 12:17:50;;;;;;;14.57;13.07;;;31.30;93.00;;;;;;5108325;28;20414;-86
2021/07/25 12:20:21;;;;;;;14.82;12.90;;;31.50;92.70;;;;;;5109951;28;20415;-86
2021/07/25 12:22:56;;;;;;;14.57;12.68;;;31.70;93.20;;;;;;5109082;28;20451;-87
2021/07/25 12:25:25;;;;;;;16.02;12.50;;;31.80;92.90;;;;;;5110794;28;20385;-86
2021/07/25 12:28:07;;;;;;;14.40;12.82;;;32.00;92.00;;;;;;5109230;28;20752;-86
2021/07/25 12:30:39;;;;;;;15.02;12.98;;;32.10;91.80;;;;;;5105328;28;20404;-87
2021/07/25 12:33:06;;;;;;;14.52;12.77;;;32.10;92.10;;;;;;5107556;28;20458;-88
2021/07/25 12:35:33;;;;;;;16.95;12.85;;;32.10;93.10;;;;;;5110538;28;20433;-88